Time;durP1;ratioP1;P1;durP2;ratioP2;P2;SDS_P1;SDS_P2;PMS_P1;PMS_P2;Temp;Humidity;BMP_temperature;BMP_pressure;BME280_temperature;BME280_humidity;BME280_pressure;Samples;Min_cycle;Max_cycle;Signal;HPM_P1;HPM_P2
2023/04/08 00:02:01;;;;;;;7.65;5.30;;;8.10;99.90;;;;;;4946440;28;20027;-66
2023/04/08 00:04:27;;;;;;;8.07;5.13;;;8.20;99.90;;;;;;4943257;28;20070;-66
2023/04/08 00:06:52;;;;;;;7.13;5.20;;;8.10;99.90;;;;;;4946687;28;20035;-66
2023/04/08 00:09:19;;;;;;;9.68;5.78;;;8.10;99.90;;;;;;4946832;28;20035;-66
2023/04/08 00:11:46;;;;;;;8.68;5.03;;;8.10;99.90;;;;;;4946881;28;20051;-66
2023/04/08 00:14:12;;;;;;;6.43;4.70;;;8.10;99.90;;;;;;4946836;28;20046;-66
2023/04/08 00:16:37;;;;;;;9.93;5.13;;;8.10;99.90;;;;;;4947200;28;20039;-65
2023/04/08 00:19:05;;;;;;;7.90;5.65;;;8.10;99.90;;;;;;4946329;28;20043;-66
2023/04/08 00:21:31;;;;;;;7.38;5.10;;;8.10;99.90;;;;;;4946390;28;20515;-66
2023/04/08 00:23:57;;;;;;;9.55;4.97;;;8.10;99.90;;;;;;4942932;28;20039;-66
2023/04/08 00:26:23;;;;;;;9.85;6.38;;;8.10;99.90;;;;;;4946163;28;20031;-66
2023/04/08 00:28:49;;;;;;;6.55;5.07;;;8.10;99.90;;;;;;4945027;28;20157;-66
2023/04/08 00:31:15;;;;;;;7.70;5.40;;;8.10;99.90;;;;;;4943573;28;20539;-64
2023/04/08 00:33:41;;;;;;;7.05;4.60;;;8.20;99.90;;;;;;4945611;28;20035;-66
2023/04/08 00:36:07;;;;;;;7.72;5.15;;;8.10;99.90;;;;;;4941677;28;20047;-66
2023/04/08 00:38:33;;;;;;;9.63;5.03;;;8.10;99.90;;;;;;4929952;29;20035;-66
2023/04/08 00:40:58;;;;;;;10.13;5.35;;;8.10;99.90;;;;;;4944039;28;20102;-64
2023/04/08 00:43:24;;;;;;;7.03;5.63;;;8.10;99.90;;;;;;4929459;29;20054;-66
2023/04/08 00:45:50;;;;;;;10.45;5.60;;;8.10;99.90;;;;;;4943450;28;20590;-66
2023/04/08 00:48:16;;;;;;;7.95;5.03;;;8.20;99.90;;;;;;4943223;28;20046;-66
2023/04/08 00:50:43;;;;;;;8.63;5.60;;;8.20;99.90;;;;;;4928727;29;20027;-64
2023/04/08 00:53:09;;;;;;;8.70;5.70;;;8.20;99.90;;;;;;4939847;28;20036;-66
2023/04/08 00:55:35;;;;;;;9.60;6.43;;;8.20;99.90;;;;;;4944280;28;20050;-66
2023/04/08 00:58:01;;;;;;;11.18;7.30;;;8.20;99.90;;;;;;4942681;28;20902;-66
2023/04/08 01:00:30;;;;;;;10.98;7.25;;;8.20;99.90;;;;;;4942385;28;20063;-66
2023/04/08 01:03:04;;;;;;;10.00;5.93;;;8.20;99.90;;;;;;4942885;28;20920;-66
2023/04/08 01:05:56;;;;;;;9.55;5.70;;;8.20;99.90;;;;;;4942952;28;20527;-66
2023/04/08 01:08:25;;;;;;;10.50;6.55;;;8.20;99.90;;;;;;4943286;28;20113;-66
2023/04/08 01:10:53;;;;;;;10.85;6.97;;;8.20;99.90;;;;;;4938679;28;20475;-66
2023/04/08 01:13:25;;;;;;;12.07;7.13;;;8.20;99.90;;;;;;4927065;29;20424;-66
2023/04/08 01:15:52;;;;;;;12.45;8.02;;;8.20;99.90;;;;;;4942442;28;20035;-66
2023/04/08 01:18:19;;;;;;;14.23;7.72;;;8.20;99.90;;;;;;4927471;29;20032;-66
2023/04/08 01:20:46;;;;;;;14.65;7.90;;;8.20;99.90;;;;;;4928393;28;20554;-66
2023/04/08 01:23:42;;;;;;;14.32;9.18;;;8.20;99.90;;;;;;4940199;28;20038;-66
2023/04/08 01:26:12;;;;;;;15.68;8.45;;;8.10;99.90;;;;;;4942949;28;20041;-66
2023/04/08 01:28:39;;;;;;;20.65;10.45;;;8.10;99.90;;;;;;4941802;28;20066;-66
2023/04/08 01:31:06;;;;;;;14.20;8.60;;;8.10;99.90;;;;;;4940121;28;20131;-66
2023/04/08 01:33:33;;;;;;;21.40;10.68;;;8.10;99.90;;;;;;4927837;29;20031;-66
2023/04/08 01:36:00;;;;;;;20.60;10.43;;;8.20;99.90;;;;;;4940576;28;20097;-66
2023/04/08 01:38:27;;;;;;;19.98;10.40;;;8.10;99.90;;;;;;4942844;28;20147;-66
2023/04/08 01:40:54;;;;;;;20.23;10.95;;;8.20;99.90;;;;;;4926917;28;20594;-66
2023/04/08 01:43:21;;;;;;;21.00;11.18;;;8.20;99.90;;;;;;4941163;28;20032;-66
2023/04/08 01:45:48;;;;;;;22.08;11.13;;;8.20;99.90;;;;;;4927499;28;20113;-66
2023/04/08 01:48:15;;;;;;;23.58;11.55;;;8.20;99.90;;;;;;4939723;28;20210;-66
2023/04/08 01:50:42;;;;;;;24.65;12.25;;;8.10;99.90;;;;;;4928542;29;20146;-66
2023/04/08 01:53:10;;;;;;;21.88;10.98;;;8.10;99.90;;;;;;4939345;28;20023;-66
2023/04/08 01:55:38;;;;;;;26.38;12.35;;;8.10;99.90;;;;;;4941215;28;20115;-66
2023/04/08 01:58:06;;;;;;;23.45;11.43;;;8.10;99.90;;;;;;4924613;28;20032;-66
2023/04/08 02:00:33;;;;;;;25.98;12.02;;;8.10;99.90;;;;;;4927934;29;20746;-66
2023/04/08 02:03:01;;;;;;;25.17;11.80;;;8.10;99.90;;;;;;4941887;28;20061;-66
2023/04/08 02:05:26;;;;;;;28.73;12.68;;;8.10;99.90;;;;;;4927550;29;20035;-66
2023/04/08 02:07:52;;;;;;;29.27;12.93;;;8.10;99.90;;;;;;4926300;29;20033;-66
2023/04/08 02:10:19;;;;;;;26.80;12.27;;;8.10;99.90;;;;;;4941035;28;20027;-66
2023/04/08 02:12:46;;;;;;;26.80;13.75;;;8.10;99.90;;;;;;4928206;28;20039;-66
2023/04/08 02:15:12;;;;;;;32.75;14.00;;;8.00;99.90;;;;;;4940662;28;20118;-66
2023/04/08 02:17:44;;;;;;;26.08;13.05;;;8.10;99.90;;;;;;4941795;28;20080;-66
2023/04/08 02:20:18;;;;;;;25.90;12.65;;;8.10;99.90;;;;;;4942714;28;20027;-66
2023/04/08 02:23:02;;;;;;;27.50;11.73;;;8.00;99.90;;;;;;4926440;29;20515;-66
2023/04/08 02:25:29;;;;;;;28.25;12.18;;;8.00;99.90;;;;;;4940622;28;20035;-66
2023/04/08 02:27:57;;;;;;;30.25;13.07;;;8.00;99.90;;;;;;4941623;28;20043;-66
2023/04/08 02:30:25;;;;;;;27.85;11.93;;;8.00;99.90;;;;;;4926613;28;20077;-66
2023/04/08 02:32:53;;;;;;;31.85;13.77;;;8.10;99.90;;;;;;4926733;28;20126;-66
2023/04/08 02:35:19;;;;;;;28.70;13.32;;;8.10;99.90;;;;;;4938778;28;20024;-66
2023/04/08 02:37:48;;;;;;;28.00;12.60;;;8.10;99.90;;;;;;4926924;28;20031;-66
2023/04/08 02:40:27;;;;;;;28.27;13.70;;;8.10;99.90;;;;;;4930828;29;20031;-66
2023/04/08 02:42:54;;;;;;;28.83;13.50;;;8.00;99.90;;;;;;4940678;28;20039;-66
2023/04/08 02:45:20;;;;;;;30.67;13.25;;;8.00;99.90;;;;;;4941658;28;20685;-66
2023/04/08 02:47:48;;;;;;;27.50;12.07;;;8.00;99.90;;;;;;4926461;28;20031;-66
2023/04/08 02:50:14;;;;;;;24.83;12.00;;;8.10;99.90;;;;;;4926826;29;20062;-66
2023/04/08 02:52:40;;;;;;;26.55;12.77;;;8.00;99.90;;;;;;4941766;28;20031;-66
2023/04/08 02:55:08;;;;;;;26.85;12.20;;;8.00;99.90;;;;;;4938083;28;20050;-66
2023/04/08 02:57:36;;;;;;;28.23;12.45;;;8.10;99.90;;;;;;4943119;28;20031;-67
2023/04/08 03:00:03;;;;;;;25.38;12.73;;;8.10;99.90;;;;;;4939209;28;20043;-66
2023/04/08 03:02:29;;;;;;;27.42;13.05;;;8.10;99.90;;;;;;4941833;28;20042;-66
2023/04/08 03:04:55;;;;;;;26.63;11.50;;;8.10;99.90;;;;;;4940930;28;20069;-66
2023/04/08 03:07:20;;;;;;;29.02;13.23;;;8.10;99.90;;;;;;4938768;28;20783;-66
2023/04/08 03:09:46;;;;;;;30.25;14.27;;;8.10;99.90;;;;;;4943173;28;20042;-66
2023/04/08 03:12:12;;;;;;;30.00;12.77;;;8.10;99.90;;;;;;4938497;28;20055;-66
2023/04/08 03:14:38;;;;;;;25.92;11.70;;;8.10;99.90;;;;;;4942654;28;20522;-66
2023/04/08 03:17:03;;;;;;;25.13;12.55;;;8.10;99.90;;;;;;4924645;28;20043;-66
2023/04/08 03:19:29;;;;;;;30.08;13.32;;;8.10;99.90;;;;;;4939155;28;20047;-66
2023/04/08 03:21:55;;;;;;;28.13;13.38;;;8.10;99.90;;;;;;4941475;28;20031;-66
2023/04/08 03:24:21;;;;;;;27.40;11.57;;;8.10;99.90;;;;;;4939920;28;20078;-66
2023/04/08 03:26:46;;;;;;;30.25;12.70;;;8.10;99.90;;;;;;4942699;28;20839;-66
2023/04/08 03:29:12;;;;;;;26.65;12.38;;;8.10;99.90;;;;;;4939781;28;20038;-66
2023/04/08 03:31:38;;;;;;;28.38;11.75;;;8.10;99.90;;;;;;4940797;28;20143;-66
2023/04/08 03:34:03;;;;;;;31.45;12.38;;;8.10;99.90;;;;;;4938547;28;20134;-66
2023/04/08 03:36:30;;;;;;;29.05;13.00;;;8.10;99.90;;;;;;4940165;28;20051;-66
2023/04/08 03:38:55;;;;;;;29.25;12.52;;;8.10;99.90;;;;;;4945838;28;20040;-66
2023/04/08 03:41:21;;;;;;;29.38;12.60;;;8.10;99.90;;;;;;4946840;28;20038;-66
2023/04/08 03:43:47;;;;;;;28.42;12.88;;;8.10;99.90;;;;;;4946191;28;20047;-66
2023/04/08 03:46:13;;;;;;;23.42;10.82;;;8.10;99.90;;;;;;4946645;28;20027;-66
2023/04/08 03:48:38;;;;;;;25.77;11.40;;;8.10;99.90;;;;;;4943172;28;20069;-66
2023/04/08 03:51:04;;;;;;;29.80;13.02;;;8.10;99.90;;;;;;4946046;28;20035;-66
2023/04/08 03:53:30;;;;;;;24.80;12.05;;;8.20;99.90;;;;;;4946074;28;20027;-66
2023/04/08 03:55:56;;;;;;;28.10;11.73;;;8.20;99.90;;;;;;4942054;28;20047;-66
2023/04/08 03:58:22;;;;;;;29.70;12.02;;;8.20;99.90;;;;;;4946313;28;20054;-66
2023/04/08 04:00:48;;;;;;;25.08;12.10;;;8.10;99.90;;;;;;4945689;28;20601;-66
2023/04/08 04:03:14;;;;;;;23.95;11.60;;;8.10;99.90;;;;;;4946316;28;20057;-66
2023/04/08 04:05:40;;;;;;;33.05;13.55;;;8.10;99.90;;;;;;4946274;28;20031;-66
2023/04/08 04:08:08;;;;;;;30.80;12.18;;;8.10;99.90;;;;;;4944861;28;20715;-66
2023/04/08 04:10:34;;;;;;;25.55;12.00;;;8.10;99.90;;;;;;4946762;28;20023;-66
2023/04/08 04:13:00;;;;;;;25.25;11.45;;;8.10;99.90;;;;;;4946296;28;20031;-66
2023/04/08 04:15:26;;;;;;;27.58;12.82;;;8.20;99.90;;;;;;4945608;28;20035;-66
2023/04/08 04:17:52;;;;;;;29.15;12.68;;;8.20;99.90;;;;;;4945620;28;20038;-66
2023/04/08 04:20:18;;;;;;;29.83;13.20;;;8.10;99.90;;;;;;4944711;28;20062;-66
2023/04/08 04:22:43;;;;;;;29.92;13.40;;;8.10;99.90;;;;;;4945727;28;20050;-66
2023/04/08 04:25:09;;;;;;;30.23;13.57;;;8.10;99.90;;;;;;4942645;28;20391;-66
2023/04/08 04:27:35;;;;;;;33.03;12.57;;;8.10;99.90;;;;;;4950335;28;20028;-66
2023/04/08 04:30:02;;;;;;;29.55;13.45;;;8.10;99.90;;;;;;4945758;28;20051;-66
2023/04/08 04:32:28;;;;;;;30.75;13.63;;;8.10;99.90;;;;;;4945764;28;20050;-66
2023/04/08 04:34:54;;;;;;;29.38;12.45;;;8.10;99.90;;;;;;4945993;28;20617;-66
2023/04/08 04:37:20;;;;;;;30.80;13.30;;;8.10;99.90;;;;;;4945425;28;20031;-66
2023/04/08 04:39:46;;;;;;;34.28;13.77;;;8.10;99.90;;;;;;4945445;28;20036;-66
2023/04/08 04:42:12;;;;;;;27.55;12.77;;;8.10;99.90;;;;;;4943915;28;20031;-66
2023/04/08 04:44:37;;;;;;;25.38;11.05;;;8.10;99.90;;;;;;4944612;28;20027;-66
2023/04/08 04:47:03;;;;;;;28.63;13.23;;;8.10;99.90;;;;;;4944372;28;20632;-66
2023/04/08 04:49:29;;;;;;;26.58;12.70;;;8.20;99.90;;;;;;4944819;28;20038;-66
2023/04/08 04:51:55;;;;;;;27.60;13.13;;;8.20;99.90;;;;;;4941416;28;20031;-66
2023/04/08 04:54:20;;;;;;;27.75;12.38;;;8.10;99.90;;;;;;4944345;28;20023;-66
2023/04/08 04:56:46;;;;;;;30.55;12.95;;;8.10;99.90;;;;;;4945161;28;20055;-65
2023/04/08 04:59:12;;;;;;;28.45;11.98;;;8.10;99.90;;;;;;4944805;28;20079;-65
2023/04/08 05:01:39;;;;;;;24.25;12.15;;;8.20;99.90;;;;;;4943544;28;20031;-65
2023/04/08 05:04:06;;;;;;;26.67;11.25;;;8.20;99.90;;;;;;4944272;28;20097;-65
2023/04/08 05:06:32;;;;;;;28.10;12.98;;;8.20;99.90;;;;;;4944983;28;20772;-65
2023/04/08 05:08:58;;;;;;;25.27;12.57;;;8.20;99.90;;;;;;4945508;28;20123;-64
2023/04/08 05:11:24;;;;;;;29.70;13.32;;;8.30;99.90;;;;;;4942266;28;20114;-65
2023/04/08 05:13:49;;;;;;;32.67;14.02;;;8.30;99.90;;;;;;4943365;28;20416;-65
2023/04/08 05:16:15;;;;;;;29.23;12.45;;;8.20;99.90;;;;;;4941055;28;20153;-65
2023/04/08 05:18:41;;;;;;;27.67;12.23;;;8.20;99.90;;;;;;4925781;29;20032;-65
2023/04/08 05:21:07;;;;;;;30.85;13.32;;;8.30;99.90;;;;;;4943660;28;20043;-65
2023/04/08 05:23:34;;;;;;;26.35;11.27;;;8.30;99.90;;;;;;4944169;28;20023;-65
2023/04/08 05:26:00;;;;;;;33.95;14.77;;;8.30;99.90;;;;;;4943669;28;20038;-65
2023/04/08 05:28:26;;;;;;;29.00;13.90;;;8.30;99.90;;;;;;4941159;28;20118;-65
2023/04/08 05:30:52;;;;;;;25.45;13.10;;;8.30;99.90;;;;;;4942417;28;20895;-65
2023/04/08 05:33:18;;;;;;;32.40;14.63;;;8.40;99.90;;;;;;4945193;28;20031;-65
2023/04/08 05:35:44;;;;;;;26.58;12.63;;;8.30;99.90;;;;;;4944159;28;20031;-65
2023/04/08 05:38:10;;;;;;;31.30;14.75;;;8.40;99.90;;;;;;4942854;28;20034;-65
2023/04/08 05:40:36;;;;;;;32.72;13.98;;;8.40;99.90;;;;;;4944261;28;20027;-65
2023/04/08 05:43:02;;;;;;;34.00;14.35;;;8.40;99.90;;;;;;4942330;28;20578;-65
2023/04/08 05:45:29;;;;;;;29.85;13.38;;;8.40;99.90;;;;;;4944033;28;20118;-65
2023/04/08 05:47:55;;;;;;;31.95;13.85;;;8.40;99.90;;;;;;4942883;28;20027;-65
2023/04/08 05:50:21;;;;;;;37.08;14.77;;;8.40;99.90;;;;;;4944682;28;20039;-65
2023/04/08 05:52:46;;;;;;;33.78;13.55;;;8.40;99.90;;;;;;4944409;28;20124;-65
2023/04/08 05:55:13;;;;;;;30.40;14.05;;;8.50;99.90;;;;;;4943647;28;20821;-65
2023/04/08 05:57:39;;;;;;;32.65;14.38;;;8.50;99.90;;;;;;4942944;28;20035;-65
2023/04/08 06:00:08;;;;;;;35.15;15.48;;;8.50;99.90;;;;;;4944115;28;20046;-65
2023/04/08 06:02:35;;;;;;;34.33;14.63;;;8.50;99.90;;;;;;4927502;29;20035;-65
2023/04/08 06:05:05;;;;;;;36.47;15.45;;;8.50;99.90;;;;;;4941714;28;20335;-65
2023/04/08 06:07:31;;;;;;;33.28;14.25;;;8.50;99.90;;;;;;4941133;28;20035;-65
2023/04/08 06:09:57;;;;;;;33.58;16.02;;;8.60;99.90;;;;;;4940626;28;20039;-65
2023/04/08 06:12:23;;;;;;;37.20;14.88;;;8.60;99.90;;;;;;4944023;28;20031;-65
2023/04/08 06:14:54;;;;;;;31.48;14.48;;;8.60;99.90;;;;;;4943534;28;20189;-65
2023/04/08 06:17:19;;;;;;;37.33;16.13;;;8.60;99.90;;;;;;4943257;28;20035;-65
2023/04/08 06:19:45;;;;;;;35.25;15.65;;;8.70;99.90;;;;;;4941599;28;20376;-65
2023/04/08 06:22:11;;;;;;;35.90;15.60;;;8.70;99.90;;;;;;4942439;28;20133;-65
2023/04/08 06:24:37;;;;;;;35.70;14.98;;;8.70;99.90;;;;;;4943645;28;20058;-65
2023/04/08 06:27:02;;;;;;;32.75;13.73;;;8.70;99.90;;;;;;4944116;28;20046;-65
2023/04/08 06:29:28;;;;;;;34.13;15.00;;;8.80;99.90;;;;;;4939546;28;20027;-65
2023/04/08 06:31:54;;;;;;;34.20;15.48;;;8.80;99.90;;;;;;4944116;28;20043;-65
2023/04/08 06:34:20;;;;;;;34.08;16.60;;;8.90;99.90;;;;;;4940157;28;20035;-65
2023/04/08 06:36:47;;;;;;;36.20;16.60;;;8.90;99.90;;;;;;4941556;28;20822;-65
2023/04/08 06:39:14;;;;;;;35.05;15.05;;;8.90;99.90;;;;;;4943757;28;20039;-65
2023/04/08 06:41:40;;;;;;;39.03;16.23;;;8.90;99.90;;;;;;4941464;28;20487;-65
2023/04/08 06:44:19;;;;;;;38.03;16.80;;;9.00;99.90;;;;;;4925460;29;20483;-65
2023/04/08 06:46:45;;;;;;;40.13;16.98;;;9.00;99.90;;;;;;4944108;28;20100;-65
2023/04/08 06:49:12;;;;;;;35.70;16.10;;;8.90;99.90;;;;;;4936239;28;20058;-65
2023/04/08 06:51:37;;;;;;;40.10;16.10;;;9.00;99.90;;;;;;4943628;28;20154;-65
2023/04/08 06:54:03;;;;;;;38.22;17.92;;;9.00;99.90;;;;;;4942060;28;20550;-64
2023/04/08 06:56:29;;;;;;;37.55;16.75;;;9.00;99.90;;;;;;4942674;28;20031;-65
2023/04/08 06:58:55;;;;;;;43.03;18.15;;;9.00;99.90;;;;;;4939966;28;20692;-65
2023/04/08 07:01:21;;;;;;;39.83;16.90;;;9.00;99.90;;;;;;4937008;28;20027;-65
2023/04/08 07:03:47;;;;;;;39.88;17.65;;;9.00;99.90;;;;;;4940633;28;20911;-65
2023/04/08 07:06:12;;;;;;;36.60;16.40;;;8.90;99.90;;;;;;4939798;28;20106;-65
2023/04/08 07:08:38;;;;;;;39.53;17.52;;;9.00;99.90;;;;;;4940821;28;20054;-65
2023/04/08 07:11:04;;;;;;;45.60;17.65;;;9.00;99.90;;;;;;4938826;28;20097;-65
2023/04/08 07:13:30;;;;;;;37.85;17.08;;;9.10;99.90;;;;;;4947658;28;20805;-65
2023/04/08 07:15:56;;;;;;;36.13;16.45;;;9.20;99.90;;;;;;4941202;28;20039;-65
2023/04/08 07:18:22;;;;;;;36.30;15.73;;;9.20;99.90;;;;;;4942555;28;20049;-66
2023/04/08 07:20:52;;;;;;;38.83;16.17;;;9.20;99.90;;;;;;4947025;28;20073;-65
2023/04/08 07:23:19;;;;;;;37.10;17.30;;;9.30;99.90;;;;;;4946378;28;20114;-65
2023/04/08 07:25:45;;;;;;;30.88;14.63;;;9.40;99.90;;;;;;4944764;28;20055;-65
2023/04/08 07:28:11;;;;;;;31.75;14.82;;;9.40;99.90;;;;;;4946468;28;20046;-65
2023/04/08 07:30:37;;;;;;;35.75;16.05;;;9.40;99.90;;;;;;4946172;28;20047;-65
2023/04/08 07:33:03;;;;;;;39.78;15.75;;;9.40;99.90;;;;;;4946199;28;20041;-65
2023/04/08 07:35:30;;;;;;;38.03;16.33;;;9.50;99.90;;;;;;4945807;28;20038;-65
2023/04/08 07:37:56;;;;;;;34.50;15.95;;;9.50;99.90;;;;;;4946712;28;20063;-65
2023/04/08 07:40:22;;;;;;;34.00;15.48;;;9.50;99.90;;;;;;4943238;28;20039;-65
2023/04/08 07:42:48;;;;;;;42.28;18.60;;;9.60;99.90;;;;;;4946145;28;20058;-65
2023/04/08 07:45:14;;;;;;;39.30;19.05;;;9.60;99.90;;;;;;4945477;28;20166;-66
2023/04/08 07:47:40;;;;;;;35.85;16.45;;;9.70;99.90;;;;;;4928864;29;20038;-65
2023/04/08 07:50:06;;;;;;;42.72;18.10;;;9.70;99.90;;;;;;4944570;28;20038;-66
2023/04/08 07:52:33;;;;;;;38.58;18.05;;;9.70;99.90;;;;;;4943678;28;20035;-65
2023/04/08 07:54:59;;;;;;;43.78;18.90;;;9.70;99.90;;;;;;4945686;28;20039;-65
2023/04/08 07:57:25;;;;;;;38.78;18.27;;;9.70;99.90;;;;;;4945526;28;20543;-65
2023/04/08 07:59:51;;;;;;;38.45;17.85;;;9.80;99.90;;;;;;4944478;28;20480;-65
2023/04/08 08:02:17;;;;;;;37.88;18.88;;;9.80;99.90;;;;;;4945249;28;20090;-65
2023/04/08 08:04:43;;;;;;;37.20;17.38;;;9.90;99.90;;;;;;4944966;28;20822;-65
2023/04/08 08:07:09;;;;;;;34.25;17.55;;;9.90;99.90;;;;;;4945331;28;20035;-65
2023/04/08 08:09:35;;;;;;;42.08;19.15;;;10.00;99.90;;;;;;4946840;28;20039;-65
2023/04/08 08:12:00;;;;;;;36.13;17.67;;;10.10;99.90;;;;;;4946182;28;20039;-65
2023/04/08 08:14:26;;;;;;;39.45;18.65;;;10.10;99.90;;;;;;4945250;28;20774;-65
2023/04/08 08:16:53;;;;;;;41.78;19.10;;;10.10;99.90;;;;;;4944721;28;20035;-65
2023/04/08 08:19:19;;;;;;;39.03;17.95;;;10.20;99.90;;;;;;4944862;28;20094;-65
2023/04/08 08:21:45;;;;;;;35.83;18.23;;;10.20;99.90;;;;;;4944162;28;20031;-66
2023/04/08 08:24:11;;;;;;;35.30;17.90;;;10.20;99.90;;;;;;4944977;28;20462;-65
2023/04/08 08:26:37;;;;;;;35.97;17.15;;;10.10;99.90;;;;;;4942237;28;20122;-65
2023/04/08 08:29:03;;;;;;;35.45;17.20;;;10.10;99.90;;;;;;4945087;28;20035;-66
2023/04/08 08:31:29;;;;;;;37.83;18.30;;;10.10;99.90;;;;;;4945098;28;20813;-65
2023/04/08 08:33:55;;;;;;;41.72;17.45;;;10.20;99.90;;;;;;4944318;28;20035;-65
2023/04/08 08:36:21;;;;;;;39.90;20.33;;;10.20;99.90;;;;;;4944999;28;20063;-65
2023/04/08 08:38:47;;;;;;;34.42;17.65;;;10.30;99.90;;;;;;4945908;28;20039;-65
2023/04/08 08:41:13;;;;;;;42.13;20.33;;;10.30;99.90;;;;;;4944090;28;20038;-66
2023/04/08 08:43:39;;;;;;;40.75;19.35;;;10.50;99.90;;;;;;4943468;28;20035;-65
2023/04/08 08:46:09;;;;;;;42.95;19.92;;;10.70;99.90;;;;;;4928174;28;20032;-65
2023/04/08 08:48:37;;;;;;;40.53;19.45;;;10.90;99.90;;;;;;4942408;28;20141;-65
2023/04/08 08:51:12;;;;;;;43.72;19.55;;;11.30;99.90;;;;;;4942918;28;20039;-65
2023/04/08 08:53:39;;;;;;;33.97;18.57;;;11.50;99.90;;;;;;4943117;28;20039;-66
2023/04/08 08:56:08;;;;;;;37.70;18.83;;;11.60;99.90;;;;;;4940598;28;20411;-65
2023/04/08 08:58:34;;;;;;;41.08;20.20;;;11.70;99.90;;;;;;4944708;28;20181;-65
2023/04/08 09:01:00;;;;;;;37.67;18.83;;;11.60;99.90;;;;;;4944744;28;20043;-65
2023/04/08 09:03:27;;;;;;;34.83;17.75;;;11.50;99.90;;;;;;4943507;28;20055;-65
2023/04/08 09:05:55;;;;;;;36.22;18.92;;;11.40;99.90;;;;;;4944203;28;20027;-66
2023/04/08 09:08:36;;;;;;;39.75;18.45;;;11.40;99.90;;;;;;4943118;28;20683;-66
2023/04/08 09:11:15;;;;;;;33.72;17.15;;;11.40;99.90;;;;;;4943294;28;20031;-65
2023/04/08 09:13:42;;;;;;;38.13;18.80;;;11.40;99.90;;;;;;4939326;28;20964;-65
2023/04/08 09:16:10;;;;;;;34.60;18.42;;;11.50;99.90;;;;;;4942166;28;20058;-65
2023/04/08 09:18:37;;;;;;;35.35;17.80;;;11.60;99.90;;;;;;4944619;28;20386;-65
2023/04/08 09:21:04;;;;;;;36.63;18.70;;;11.60;99.90;;;;;;4944459;28;20265;-65
2023/04/08 09:23:51;;;;;;;33.80;18.20;;;11.60;99.90;;;;;;4941663;28;20027;-65
2023/04/08 09:26:23;;;;;;;37.40;19.77;;;11.50;99.90;;;;;;4941898;28;20066;-65
2023/04/08 09:29:05;;;;;;;33.90;18.38;;;11.50;99.90;;;;;;4944533;28;20059;-66
2023/04/08 09:31:46;;;;;;;38.45;19.17;;;11.60;99.90;;;;;;4943412;28;20042;-66
2023/04/08 09:34:18;;;;;;;33.95;18.08;;;11.80;99.90;;;;;;4942589;28;20035;-65
2023/04/08 09:36:44;;;;;;;34.33;18.27;;;11.90;99.90;;;;;;4940757;28;20035;-66
2023/04/08 09:39:10;;;;;;;35.60;18.83;;;12.10;99.90;;;;;;4944242;28;20035;-65
2023/04/08 09:41:37;;;;;;;30.30;18.08;;;12.30;99.90;;;;;;4942912;28;20082;-66
2023/04/08 09:44:08;;;;;;;35.95;18.50;;;12.40;99.40;;;;;;4941832;28;20938;-66
2023/04/08 09:46:46;;;;;;;33.08;17.48;;;12.40;98.90;;;;;;4944424;28;20035;-66
2023/04/08 09:49:26;;;;;;;33.70;18.33;;;12.30;99.00;;;;;;4941393;28;20062;-65
2023/04/08 09:52:17;;;;;;;31.52;17.45;;;12.30;99.30;;;;;;4942327;28;20073;-66
2023/04/08 09:55:04;;;;;;;29.23;16.92;;;12.30;99.10;;;;;;4935119;28;20962;-65
2023/04/08 09:57:57;;;;;;;32.03;17.27;;;12.50;98.70;;;;;;4942704;28;20099;-65
2023/04/08 10:00:42;;;;;;;26.30;15.05;;;12.60;98.40;;;;;;4927510;29;20094;-66
2023/04/08 10:03:36;;;;;;;30.98;16.77;;;12.50;98.40;;;;;;4943770;28;20086;-66
2023/04/08 10:06:02;;;;;;;25.75;15.43;;;12.50;98.80;;;;;;4942514;28;20051;-66
2023/04/08 10:08:30;;;;;;;32.17;16.13;;;12.50;98.50;;;;;;4943736;28;20923;-65
2023/04/08 10:10:56;;;;;;;33.45;17.45;;;12.30;98.20;;;;;;4941560;28;20078;-65
2023/04/08 10:13:23;;;;;;;27.17;16.27;;;12.20;98.70;;;;;;4943439;28;20526;-65
2023/04/08 10:15:49;;;;;;;27.15;14.75;;;12.10;98.80;;;;;;4943885;28;20106;-66
2023/04/08 10:18:17;;;;;;;24.75;14.30;;;11.90;99.20;;;;;;4942990;28;20907;-66
2023/04/08 10:20:47;;;;;;;25.08;14.18;;;11.90;99.50;;;;;;4942032;28;20099;-66
2023/04/08 10:23:17;;;;;;;32.78;15.95;;;11.90;99.60;;;;;;4940762;28;20070;-66
2023/04/08 10:25:44;;;;;;;24.65;14.10;;;11.80;99.40;;;;;;4943221;28;20027;-65
2023/04/08 10:28:10;;;;;;;25.58;15.13;;;11.80;99.70;;;;;;4940899;28;20042;-65
2023/04/08 10:30:48;;;;;;;29.80;15.73;;;11.70;99.90;;;;;;4940610;28;20035;-65
2023/04/08 10:33:24;;;;;;;25.92;15.45;;;11.70;99.80;;;;;;4942707;28;20038;-65
2023/04/08 10:35:58;;;;;;;28.50;15.13;;;11.70;99.90;;;;;;4943154;28;20031;-65
2023/04/08 10:38:24;;;;;;;31.60;16.33;;;11.60;99.90;;;;;;4943284;28;20070;-66
2023/04/08 10:40:50;;;;;;;27.88;14.05;;;11.70;99.90;;;;;;4943380;28;20605;-65
2023/04/08 10:43:16;;;;;;;30.67;15.00;;;11.60;99.90;;;;;;4939240;28;20496;-65
2023/04/08 10:45:43;;;;;;;25.42;13.90;;;11.60;99.90;;;;;;4942313;28;20030;-66
2023/04/08 10:48:17;;;;;;;30.42;14.90;;;11.60;99.90;;;;;;4940053;28;20113;-66
2023/04/08 10:50:51;;;;;;;30.92;15.20;;;11.60;99.90;;;;;;4937482;28;20091;-66
2023/04/08 10:53:17;;;;;;;28.63;15.75;;;11.70;99.90;;;;;;4940345;28;20118;-66
2023/04/08 10:55:43;;;;;;;29.10;15.60;;;11.80;99.90;;;;;;4940200;28;20039;-65
2023/04/08 10:58:10;;;;;;;27.02;14.52;;;11.80;99.80;;;;;;4940393;28;20043;-66
2023/04/08 11:00:39;;;;;;;26.30;15.05;;;11.80;99.80;;;;;;4921027;29;20920;-66
2023/04/08 11:03:07;;;;;;;29.80;15.23;;;11.80;99.50;;;;;;4941157;28;20039;-66
2023/04/08 11:05:35;;;;;;;32.00;15.63;;;11.80;99.40;;;;;;4942715;28;20136;-66
2023/04/08 11:08:01;;;;;;;31.42;16.08;;;11.80;99.30;;;;;;4940910;28;20036;-66
2023/04/08 11:10:27;;;;;;;28.58;15.13;;;11.80;99.50;;;;;;4943138;28;20039;-65
2023/04/08 11:12:57;;;;;;;31.45;16.27;;;11.90;99.30;;;;;;4940934;28;20546;-66
2023/04/08 11:15:24;;;;;;;29.50;15.50;;;11.90;99.40;;;;;;4942046;28;20027;-66
2023/04/08 11:17:50;;;;;;;28.10;15.25;;;11.90;99.50;;;;;;4940107;28;20031;-66
2023/04/08 11:20:16;;;;;;;28.17;13.88;;;12.00;99.70;;;;;;4940142;28;20491;-65
2023/04/08 11:22:46;;;;;;;28.10;14.70;;;12.10;99.80;;;;;;4943184;28;20023;-66
2023/04/08 11:25:12;;;;;;;34.97;16.05;;;12.30;99.30;;;;;;4942561;28;20134;-65
2023/04/08 11:27:39;;;;;;;32.40;15.30;;;12.60;99.00;;;;;;4939817;28;20057;-66
2023/04/08 11:30:06;;;;;;;26.92;14.75;;;12.80;98.40;;;;;;4943423;28;20515;-66
2023/04/08 11:32:34;;;;;;;32.45;15.60;;;13.00;97.20;;;;;;4939681;28;20039;-65
2023/04/08 11:35:01;;;;;;;29.42;15.70;;;13.10;96.60;;;;;;4943536;28;20036;-66
2023/04/08 11:37:38;;;;;;;23.55;13.63;;;13.20;96.80;;;;;;4943648;28;20043;-66
2023/04/08 11:40:11;;;;;;;27.60;15.32;;;13.30;96.30;;;;;;4944383;28;20488;-65
2023/04/08 11:42:38;;;;;;;30.70;15.90;;;13.40;96.40;;;;;;4944548;28;20105;-65
2023/04/08 11:45:15;;;;;;;23.13;13.10;;;13.30;95.90;;;;;;4942827;28;20488;-66
2023/04/08 11:47:41;;;;;;;25.27;14.32;;;13.40;96.20;;;;;;4943992;28;20046;-66
2023/04/08 11:50:08;;;;;;;24.80;14.68;;;13.40;96.00;;;;;;4943645;28;20046;-66
2023/04/08 11:52:40;;;;;;;25.83;13.85;;;13.40;94.50;;;;;;4943884;28;20090;-66
2023/04/08 11:55:06;;;;;;;25.13;14.20;;;13.30;94.80;;;;;;4945164;28;20038;-66
2023/04/08 11:57:32;;;;;;;31.85;14.70;;;13.30;95.00;;;;;;4946507;28;20081;-66
2023/04/08 11:59:58;;;;;;;24.02;13.02;;;13.50;95.90;;;;;;4946514;28;20031;-66
2023/04/08 12:02:24;;;;;;;27.40;14.95;;;13.60;95.70;;;;;;4944709;28;20023;-66
2023/04/08 12:04:50;;;;;;;24.33;14.07;;;13.70;94.20;;;;;;4943212;28;20090;-66
2023/04/08 12:07:16;;;;;;;24.65;14.02;;;13.80;93.60;;;;;;4947621;28;20625;-66
2023/04/08 12:09:42;;;;;;;22.02;12.98;;;13.70;93.50;;;;;;4947284;28;20621;-66
2023/04/08 12:12:08;;;;;;;26.00;13.68;;;13.80;92.70;;;;;;4941791;28;20063;-66
2023/04/08 12:14:33;;;;;;;21.35;12.68;;;13.90;92.10;;;;;;4942921;28;20508;-66
2023/04/08 12:16:59;;;;;;;21.38;12.43;;;14.00;92.10;;;;;;4942825;28;20216;-66
2023/04/08 12:19:25;;;;;;;22.67;12.80;;;14.00;92.00;;;;;;4943874;28;20494;-66
2023/04/08 12:21:51;;;;;;;23.20;13.23;;;14.00;91.20;;;;;;4946801;28;20027;-66
2023/04/08 12:24:17;;;;;;;19.13;11.73;;;13.90;90.80;;;;;;4945240;28;20039;-65
2023/04/08 12:26:43;;;;;;;20.88;11.77;;;13.80;90.80;;;;;;4946199;28;20050;-66
2023/04/08 12:29:10;;;;;;;21.95;12.38;;;13.80;90.80;;;;;;4946393;28;20589;-66
2023/04/08 12:31:36;;;;;;;20.75;11.50;;;13.70;91.00;;;;;;4943601;28;20070;-66
2023/04/08 12:34:02;;;;;;;19.40;11.48;;;13.80;91.00;;;;;;4946520;28;20035;-66
2023/04/08 12:36:28;;;;;;;22.13;12.93;;;13.90;91.40;;;;;;4945734;28;20081;-67
2023/04/08 12:38:53;;;;;;;21.85;12.30;;;14.10;91.20;;;;;;4946913;28;20042;-66